createdAt,value
2022-09-04T00:00:02.606Z,50
2022-09-04T00:20:03.025Z,51
2022-09-04T00:40:02.509Z,52
2022-09-04T01:00:02.709Z,53
2022-09-04T01:20:02.400Z,53
2022-09-04T01:40:02.798Z,54
2022-09-04T02:00:03.133Z,55
2022-09-04T02:20:02.846Z,55
2022-09-04T02:40:03.507Z,55
2022-09-04T03:00:02.566Z,56
2022-09-04T03:20:02.994Z,56
2022-09-04T03:40:02.468Z,57
2022-09-04T04:00:02.854Z,57
2022-09-04T04:20:02.463Z,58
2022-09-04T04:40:02.951Z,58
2022-09-04T05:00:02.448Z,59
2022-09-04T05:20:02.778Z,59
2022-09-04T05:40:03.163Z,59
2022-09-04T06:00:02.474Z,59
2022-09-04T06:20:03.287Z,58
2022-09-04T06:40:02.890Z,57
2022-09-04T07:00:02.211Z,55
2022-09-04T07:20:02.960Z,53
2022-09-04T07:40:02.629Z,52
2022-09-04T08:00:03.008Z,49
2022-09-04T08:20:02.643Z,46
2022-09-04T08:40:03.415Z,44
2022-09-04T09:00:03.004Z,41
2022-09-04T09:20:02.771Z,40
2022-09-04T09:40:03.608Z,38
2022-09-04T10:00:03.113Z,36
2022-09-04T10:20:02.990Z,35
2022-09-04T10:40:02.484Z,34
2022-09-04T11:00:04.063Z,34
2022-09-04T11:20:02.742Z,34
2022-09-04T11:40:03.280Z,34
2022-09-04T12:00:02.775Z,34
2022-09-04T12:20:07.829Z,32
2022-09-04T12:40:04.249Z,32
2022-09-04T13:00:02.778Z,31
2022-09-04T13:20:02.823Z,32
2022-09-04T13:40:03.646Z,32
2022-09-04T14:00:06.543Z,33
2022-09-04T14:20:03.354Z,34
2022-09-04T14:40:04.254Z,34
2022-09-04T15:00:04.899Z,35
2022-09-04T15:20:04.356Z,34
2022-09-04T15:40:04.660Z,35
2022-09-04T16:00:04.138Z,36
2022-09-04T16:20:03.530Z,36
2022-09-04T16:40:03.143Z,37
2022-09-04T17:00:02.749Z,38
2022-09-04T17:20:03.548Z,39
2022-09-04T17:41:52.971Z,40
2022-09-04T18:00:02.406Z,42
2022-09-04T18:20:03.319Z,44
2022-09-04T18:40:03.071Z,45
2022-09-04T19:00:09.380Z,46
2022-09-04T19:20:05.995Z,47
2022-09-04T19:46:27.541Z,48
2022-09-04T20:00:43.251Z,49
2022-09-04T20:20:02.476Z,50
2022-09-04T20:40:03.136Z,51
2022-09-04T21:03:28.749Z,51
2022-09-04T21:20:02.707Z,52
2022-09-04T21:40:03.203Z,53
2022-09-04T22:02:54.231Z,54
2022-09-04T22:20:02.693Z,54
2022-09-04T22:40:03.303Z,55
2022-09-04T23:00:02.745Z,55
2022-09-04T23:26:58.940Z,55
2022-09-04T23:40:03.377Z,56
